createdAt,value
2019-02-18T00:00:33.463Z,20.62
2019-02-18T00:03:01.111Z,20.63
2019-02-18T00:05:28.739Z,20.64
2019-02-18T00:07:56.364Z,20.64
2019-02-18T00:10:24.014Z,20.65
2019-02-18T00:12:52.595Z,20.61
2019-02-18T00:15:20.306Z,20.64
2019-02-18T00:17:48.030Z,20.64
2019-02-18T00:20:15.662Z,20.64
2019-02-18T00:22:43.316Z,20.64
2019-02-18T00:25:10.958Z,20.63
2019-02-18T00:27:38.594Z,20.64
2019-02-18T00:30:07.628Z,20.65
2019-02-18T00:32:35.257Z,20.63
2019-02-18T00:35:02.883Z,20.63
2019-02-18T00:37:30.530Z,20.65
2019-02-18T00:39:58.135Z,20.65
2019-02-18T00:42:25.803Z,20.64
2019-02-18T00:44:53.523Z,20.66
2019-02-18T00:47:21.141Z,20.64
2019-02-18T00:49:48.794Z,20.65
2019-02-18T00:52:16.409Z,20.66
2019-02-18T00:54:44.055Z,20.66
2019-02-18T00:57:11.710Z,20.65
2019-02-18T00:59:39.336Z,20.66
2019-02-18T01:02:06.992Z,20.66
2019-02-18T01:04:34.599Z,20.66
2019-02-18T01:07:02.417Z,20.65
2019-02-18T01:09:30.046Z,20.64
2019-02-18T01:11:57.681Z,20.66
2019-02-18T01:14:25.348Z,20.65
2019-02-18T01:16:52.956Z,20.66
2019-02-18T01:19:20.597Z,20.64
2019-02-18T01:21:48.245Z,20.65
2019-02-18T01:24:15.883Z,20.65
2019-02-18T01:26:43.516Z,20.64
2019-02-18T01:29:11.158Z,20.65
2019-02-18T01:31:38.774Z,20.65
2019-02-18T01:34:06.424Z,20.66
2019-02-18T01:36:34.047Z,20.67
2019-02-18T01:39:01.709Z,20.67
2019-02-18T01:41:29.321Z,20.66
2019-02-18T01:43:56.951Z,20.66
2019-02-18T01:46:24.617Z,20.67
2019-02-18T01:48:52.243Z,20.66
2019-02-18T01:51:19.878Z,20.66
2019-02-18T01:53:47.588Z,20.68
2019-02-18T01:56:15.213Z,20.68
2019-02-18T01:58:42.845Z,20.67
2019-02-18T02:01:10.503Z,20.68
2019-02-18T02:03:38.159Z,20.66
2019-02-18T02:06:05.775Z,20.66
2019-02-18T02:08:33.491Z,20.68
2019-02-18T02:11:01.139Z,20.67
2019-02-18T02:13:32.689Z,20.67
2019-02-18T02:16:00.770Z,20.67
2019-02-18T02:18:28.383Z,20.65
2019-02-18T02:20:56.105Z,20.68
2019-02-18T02:23:23.733Z,20.67
2019-02-18T02:25:51.351Z,20.66
2019-02-18T02:28:18.993Z,20.69
2019-02-18T02:30:46.629Z,20.68
2019-02-18T02:33:14.275Z,20.68
2019-02-18T02:35:41.941Z,20.69
2019-02-18T02:38:09.551Z,20.68
2019-02-18T02:40:37.209Z,20.69
2019-02-18T02:43:05.019Z,20.68
2019-02-18T02:45:32.642Z,20.68
2019-02-18T02:48:00.304Z,20.69
2019-02-18T02:50:28.063Z,20.69
2019-02-18T02:52:55.666Z,20.69
2019-02-18T02:55:23.312Z,20.69
2019-02-18T02:57:50.964Z,20.69
2019-02-18T03:00:18.575Z,20.70
2019-02-18T03:02:46.241Z,20.69
2019-02-18T03:05:13.869Z,20.69
2019-02-18T03:07:41.497Z,20.67
2019-02-18T03:10:12.579Z,20.68
2019-02-18T03:12:40.194Z,20.68
2019-02-18T03:15:09.420Z,20.70
2019-02-18T03:17:37.032Z,20.69
2019-02-18T03:20:05.859Z,20.70
2019-02-18T03:22:34.395Z,20.70
2019-02-18T03:25:12.326Z,20.69
2019-02-18T03:27:39.952Z,20.68
2019-02-18T03:30:15.375Z,20.69
2019-02-18T03:32:43.457Z,20.68
2019-02-18T03:35:11.083Z,20.69
2019-02-18T03:37:38.712Z,20.69
2019-02-18T03:40:06.429Z,20.69
2019-02-18T03:42:34.053Z,20.70
2019-02-18T03:45:01.703Z,20.71
2019-02-18T03:47:29.333Z,20.70
2019-02-18T03:49:56.972Z,20.71
2019-02-18T03:52:24.618Z,20.71
2019-02-18T03:54:52.404Z,20.70
2019-02-18T03:57:20.323Z,20.71
2019-02-18T03:59:47.971Z,20.71
2019-02-18T04:02:15.579Z,20.72
2019-02-18T04:04:43.217Z,20.71
2019-02-18T04:07:10.882Z,20.71
2019-02-18T04:09:38.528Z,20.72
2019-02-18T04:12:06.166Z,20.72
2019-02-18T04:14:33.808Z,20.73
2019-02-18T04:17:01.516Z,20.72
2019-02-18T04:19:29.172Z,20.73
2019-02-18T04:21:56.794Z,20.73
2019-02-18T04:24:24.464Z,20.73
2019-02-18T04:26:52.086Z,20.72
2019-02-18T04:29:19.738Z,20.72
2019-02-18T04:31:47.364Z,20.73
2019-02-18T04:34:14.987Z,20.72
2019-02-18T04:36:42.627Z,20.73
2019-02-18T04:39:10.277Z,20.74
2019-02-18T04:41:37.912Z,20.73
2019-02-18T04:44:05.531Z,20.74
2019-02-18T04:46:33.180Z,20.74
2019-02-18T04:49:00.819Z,20.73
2019-02-18T04:51:28.442Z,20.74
2019-02-18T04:53:56.070Z,20.74
2019-02-18T04:56:23.698Z,20.75
2019-02-18T04:58:51.349Z,20.74
2019-02-18T05:01:18.958Z,20.76
2019-02-18T05:03:46.622Z,20.74
2019-02-18T05:06:14.261Z,20.74
2019-02-18T05:08:41.866Z,20.75
2019-02-18T05:11:09.568Z,20.76
2019-02-18T05:13:37.204Z,20.75
2019-02-18T05:16:04.880Z,20.76
2019-02-18T05:18:32.563Z,20.75
2019-02-18T05:21:00.199Z,20.74
2019-02-18T05:23:27.882Z,20.74
2019-02-18T05:25:55.505Z,20.75
2019-02-18T05:28:23.166Z,20.76
2019-02-18T05:30:50.792Z,20.78
2019-02-18T05:33:18.438Z,20.77
2019-02-18T05:35:46.044Z,20.76
2019-02-18T05:38:13.770Z,20.76
2019-02-18T05:40:41.473Z,20.76
2019-02-18T05:43:09.108Z,20.76
2019-02-18T05:45:36.764Z,20.76
2019-02-18T05:48:04.374Z,20.76
2019-02-18T05:50:32.033Z,20.76
2019-02-18T05:52:59.718Z,20.76
2019-02-18T05:55:27.357Z,20.75
2019-02-18T05:57:54.995Z,20.77
2019-02-18T06:00:22.623Z,20.75
2019-02-18T06:02:50.283Z,20.77
2019-02-18T06:05:17.967Z,20.76
2019-02-18T06:07:45.639Z,20.76
2019-02-18T06:10:13.946Z,20.75
2019-02-18T06:12:42.717Z,20.77
2019-02-18T06:15:10.420Z,20.77
2019-02-18T06:17:38.052Z,20.77
2019-02-18T06:20:07.252Z,20.77
2019-02-18T06:22:34.902Z,20.77
2019-02-18T06:25:02.542Z,20.76
2019-02-18T06:27:30.150Z,20.77
2019-02-18T06:29:57.818Z,20.76
2019-02-18T06:32:25.459Z,20.76
2019-02-18T06:34:53.134Z,20.76
2019-02-18T06:37:20.795Z,20.77
2019-02-18T06:39:48.417Z,20.75
2019-02-18T06:42:16.093Z,20.76
2019-02-18T06:44:45.431Z,20.74
2019-02-18T06:47:13.175Z,20.75
2019-02-18T06:49:40.789Z,20.74
2019-02-18T06:52:08.432Z,20.74
2019-02-18T06:54:36.094Z,20.76
2019-02-18T06:57:20.741Z,20.78
2019-02-18T06:59:50.394Z,20.79
2019-02-18T07:02:22.392Z,20.82
2019-02-18T07:04:54.329Z,20.83
2019-02-18T07:07:29.386Z,20.86
2019-02-18T07:09:58.653Z,20.86
2019-02-18T07:12:27.911Z,20.88
2019-02-18T07:14:55.547Z,20.93
2019-02-18T07:17:23.143Z,20.96
2019-02-18T07:19:50.786Z,21.00
2019-02-18T07:22:18.405Z,21.03
2019-02-18T07:24:46.064Z,21.04
2019-02-18T07:27:13.716Z,21.08
2019-02-18T07:29:41.340Z,21.09
2019-02-18T07:32:09.010Z,21.12
2019-02-18T07:34:36.640Z,21.14
2019-02-18T07:37:04.341Z,21.14
2019-02-18T07:39:32.156Z,21.16
2019-02-18T07:41:59.785Z,21.15
2019-02-18T07:44:27.409Z,21.16
2019-02-18T07:46:55.064Z,21.18
2019-02-18T07:49:22.691Z,21.21
2019-02-18T07:51:50.344Z,21.23
2019-02-18T07:54:17.975Z,21.24
2019-02-18T07:56:45.621Z,21.23
2019-02-18T07:59:13.245Z,21.27
2019-02-18T08:01:40.892Z,21.27
2019-02-18T08:04:08.527Z,21.26
2019-02-18T08:06:36.174Z,21.26
2019-02-18T08:09:05.225Z,21.26
2019-02-18T08:11:32.868Z,21.29
2019-02-18T08:14:00.508Z,21.29
2019-02-18T08:16:28.153Z,21.31
2019-02-18T08:18:55.779Z,21.31
2019-02-18T08:21:23.417Z,21.30
2019-02-18T08:23:59.628Z,21.32
2019-02-18T08:26:20.417Z,21.33
2019-02-18T08:28:48.059Z,21.34
2019-02-18T08:31:15.677Z,21.35
2019-02-18T08:33:43.311Z,21.37
2019-02-18T08:36:10.928Z,21.38
2019-02-18T08:38:38.570Z,21.39
2019-02-18T08:41:06.215Z,21.40
2019-02-18T08:43:33.860Z,21.40
2019-02-18T08:46:01.487Z,21.43
2019-02-18T08:48:29.145Z,21.44
2019-02-18T08:50:56.763Z,21.44
2019-02-18T08:53:24.410Z,21.45
2019-02-18T08:55:52.046Z,21.45
2019-02-18T08:58:19.657Z,21.48
2019-02-18T09:00:47.296Z,21.46
2019-02-18T09:03:15.007Z,21.49
2019-02-18T09:05:42.644Z,21.52
2019-02-18T09:08:10.284Z,21.52
2019-02-18T09:10:37.910Z,21.55
2019-02-18T09:13:05.551Z,21.55
2019-02-18T09:15:33.171Z,21.51
2019-02-18T09:18:00.801Z,21.52
2019-02-18T09:20:28.441Z,21.51
2019-02-18T09:22:57.739Z,21.53
2019-02-18T09:25:27.016Z,21.55
2019-02-18T09:27:54.665Z,21.56
2019-02-18T09:30:23.927Z,21.56
2019-02-18T09:32:51.545Z,21.57
2019-02-18T09:35:19.176Z,21.59
2019-02-18T09:37:46.794Z,21.61
2019-02-18T09:40:14.427Z,21.65
2019-02-18T09:42:42.071Z,21.64
2019-02-18T09:45:14.762Z,21.65
2019-02-18T09:47:42.601Z,21.70
2019-02-18T09:50:10.601Z,21.66
2019-02-18T09:52:38.237Z,21.68
2019-02-18T09:55:07.329Z,21.70
2019-02-18T09:57:35.045Z,21.71
2019-02-18T10:00:02.947Z,21.67
2019-02-18T10:02:30.595Z,21.69
2019-02-18T10:04:58.257Z,21.71
2019-02-18T10:07:25.897Z,21.73
2019-02-18T10:09:53.513Z,21.73
2019-02-18T10:12:21.157Z,21.75
2019-02-18T10:14:48.771Z,21.75
2019-02-18T10:17:16.420Z,21.81
2019-02-18T10:19:44.053Z,21.86
2019-02-18T10:22:11.720Z,21.87
2019-02-18T10:24:50.288Z,21.81
2019-02-18T10:27:08.685Z,21.79
2019-02-18T10:29:36.327Z,21.80
2019-02-18T10:32:03.957Z,21.80
2019-02-18T10:34:31.615Z,21.86
2019-02-18T10:36:59.361Z,21.85
2019-02-18T10:39:27.040Z,21.83
2019-02-18T10:41:54.698Z,21.86
2019-02-18T10:44:22.321Z,21.87
2019-02-18T10:46:49.943Z,21.84
2019-02-18T10:49:21.178Z,21.86
2019-02-18T10:51:46.955Z,21.81
2019-02-18T10:54:14.597Z,21.84
2019-02-18T10:56:42.298Z,21.84
2019-02-18T10:59:09.958Z,21.85
2019-02-18T11:01:37.652Z,21.88
2019-02-18T11:04:05.303Z,21.92
2019-02-18T11:06:32.929Z,21.92
2019-02-18T11:09:00.657Z,21.87
2019-02-18T11:11:28.265Z,21.92
2019-02-18T11:13:55.905Z,21.93
2019-02-18T11:16:23.551Z,21.84
2019-02-18T11:18:51.740Z,21.77
2019-02-18T11:21:19.394Z,21.79
2019-02-18T11:23:47.018Z,21.78
2019-02-18T11:26:14.665Z,21.80
2019-02-18T11:28:42.293Z,21.79
2019-02-18T11:31:09.955Z,21.79
2019-02-18T11:33:37.631Z,21.76
2019-02-18T11:36:05.267Z,21.75
2019-02-18T11:38:32.892Z,21.75
2019-02-18T11:41:00.536Z,21.76
2019-02-18T11:43:28.185Z,21.74
2019-02-18T11:45:55.821Z,21.79
2019-02-18T11:48:23.475Z,21.77
2019-02-18T11:50:51.308Z,21.74
2019-02-18T11:53:19.013Z,21.73
2019-02-18T11:55:46.660Z,21.75
2019-02-18T11:58:14.285Z,21.75
2019-02-18T12:00:41.951Z,21.74
2019-02-18T12:03:12.444Z,21.73
2019-02-18T12:05:38.947Z,21.72
2019-02-18T12:08:06.594Z,21.72
2019-02-18T12:10:34.216Z,21.72
2019-02-18T12:13:03.206Z,21.70
2019-02-18T12:15:30.892Z,21.69
2019-02-18T12:17:58.598Z,21.69
2019-02-18T12:20:26.275Z,21.69
2019-02-18T12:22:54.080Z,21.70
2019-02-18T12:25:22.172Z,21.69
2019-02-18T12:27:49.819Z,21.70
2019-02-18T12:30:17.827Z,21.73
2019-02-18T12:32:45.539Z,21.70
2019-02-18T12:35:13.154Z,21.70
2019-02-18T12:37:40.788Z,21.73
2019-02-18T12:40:09.517Z,21.77
2019-02-18T12:42:37.426Z,21.81
2019-02-18T12:45:06.880Z,21.78
2019-02-18T12:47:34.631Z,21.78
2019-02-18T12:50:02.265Z,21.81
2019-02-18T12:52:29.981Z,21.92
2019-02-18T12:55:00.163Z,21.86
2019-02-18T12:57:27.034Z,21.87
2019-02-18T12:59:55.296Z,21.96
2019-02-18T13:02:23.302Z,21.94
2019-02-18T13:04:50.958Z,21.82
2019-02-18T13:07:18.661Z,21.81
2019-02-18T13:09:46.456Z,21.81
2019-02-18T13:12:14.144Z,21.84
2019-02-18T13:14:41.823Z,21.87
2019-02-18T13:17:09.450Z,21.83
2019-02-18T13:19:37.561Z,21.87
2019-02-18T13:22:05.288Z,21.84
2019-02-18T13:24:32.972Z,21.87
2019-02-18T13:27:00.620Z,21.84
2019-02-18T13:29:28.264Z,21.87
2019-02-18T13:31:55.886Z,21.88
2019-02-18T13:34:23.548Z,22.11
2019-02-18T13:36:51.184Z,22.05
2019-02-18T13:39:19.377Z,21.94
2019-02-18T13:41:47.008Z,21.88
2019-02-18T13:44:14.638Z,22.02
2019-02-18T13:46:42.281Z,22.11
2019-02-18T13:49:10.018Z,21.99
2019-02-18T13:51:37.803Z,21.94
2019-02-18T13:54:05.410Z,22.09
2019-02-18T13:56:33.450Z,22.01
2019-02-18T13:59:01.070Z,21.89
2019-02-18T14:01:28.751Z,21.87
2019-02-18T14:03:56.434Z,22.15
2019-02-18T14:06:24.132Z,22.00
2019-02-18T14:08:51.870Z,21.87
2019-02-18T14:11:19.570Z,22.54
2019-02-18T14:13:47.593Z,22.01
2019-02-18T14:16:15.333Z,21.85
2019-02-18T14:18:43.036Z,21.82
2019-02-18T14:21:10.670Z,21.85
2019-02-18T14:23:38.370Z,21.82
2019-02-18T14:26:06.401Z,21.76
2019-02-18T14:28:34.076Z,21.78
2019-02-18T14:31:01.775Z,21.75
2019-02-18T14:33:29.509Z,21.75
2019-02-18T14:35:57.247Z,21.71
2019-02-18T14:38:24.886Z,21.73
2019-02-18T14:40:52.633Z,21.69
2019-02-18T14:43:20.251Z,21.74
2019-02-18T14:45:47.904Z,21.72
2019-02-18T14:48:15.528Z,21.73
2019-02-18T14:50:43.290Z,21.73
2019-02-18T14:53:11.087Z,21.71
2019-02-18T14:55:38.874Z,21.71
2019-02-18T14:58:06.601Z,21.71
2019-02-18T15:00:34.691Z,21.69
2019-02-18T15:03:02.391Z,21.71
2019-02-18T15:05:30.034Z,21.68
2019-02-18T15:07:57.637Z,21.68
2019-02-18T15:10:25.569Z,21.66
2019-02-18T15:12:53.275Z,21.72
2019-02-18T15:15:21.066Z,21.74
2019-02-18T15:17:48.762Z,21.77
2019-02-18T15:20:16.983Z,21.77
2019-02-18T15:22:44.723Z,21.74
2019-02-18T15:25:12.554Z,21.75
2019-02-18T15:27:40.260Z,21.77
2019-02-18T15:30:09.709Z,21.93
2019-02-18T15:32:37.447Z,21.92
2019-02-18T15:35:05.159Z,21.84
2019-02-18T15:37:33.249Z,21.85
2019-02-18T15:40:00.904Z,21.87
2019-02-18T15:42:28.542Z,21.85
2019-02-18T15:44:56.236Z,21.78
2019-02-18T15:47:23.931Z,21.76
2019-02-18T15:49:51.743Z,21.73
2019-02-18T15:52:19.423Z,21.75
2019-02-18T15:54:47.325Z,21.73
2019-02-18T15:57:15.023Z,21.71
2019-02-18T15:59:42.657Z,21.69
2019-02-18T16:02:10.370Z,21.66
2019-02-18T16:04:38.015Z,21.69
2019-02-18T16:07:05.689Z,21.66
2019-02-18T16:09:33.346Z,21.62
2019-02-18T16:12:01.237Z,21.62
2019-02-18T16:14:28.885Z,21.62
2019-02-18T16:16:56.539Z,21.62
2019-02-18T16:19:24.233Z,21.60
2019-02-18T16:21:51.874Z,21.62
2019-02-18T16:24:20.305Z,21.59
2019-02-18T16:26:48.097Z,21.57
2019-02-18T16:29:16.002Z,21.60
2019-02-18T16:31:43.618Z,21.59
2019-02-18T16:34:11.833Z,21.59
2019-02-18T16:36:39.543Z,21.60
2019-02-18T16:39:07.663Z,21.61
2019-02-18T16:41:36.262Z,21.61
2019-02-18T16:44:04.081Z,21.61
2019-02-18T16:46:32.207Z,21.60
2019-02-18T16:49:00.275Z,21.60
2019-02-18T16:51:27.923Z,21.61
2019-02-18T16:53:55.576Z,21.61
2019-02-18T16:56:23.383Z,21.60
2019-02-18T16:58:51.016Z,21.60
2019-02-18T17:01:19.227Z,21.58
2019-02-18T17:03:46.914Z,21.59
2019-02-18T17:06:14.561Z,21.58
2019-02-18T17:08:42.206Z,21.58
2019-02-18T17:11:09.856Z,21.59
2019-02-18T17:13:37.575Z,21.57
2019-02-18T17:16:05.282Z,21.57
2019-02-18T17:18:33.304Z,21.58
2019-02-18T17:21:01.020Z,21.56
2019-02-18T17:23:28.659Z,21.57
2019-02-18T17:25:56.319Z,21.56
2019-02-18T17:28:24.023Z,21.53
2019-02-18T17:30:51.685Z,21.53
2019-02-18T17:33:19.365Z,21.53
2019-02-18T17:35:47.370Z,21.56
2019-02-18T17:38:14.992Z,21.55
2019-02-18T17:40:42.649Z,21.55
2019-02-18T17:43:16.200Z,21.56
2019-02-18T17:45:39.628Z,21.56
2019-02-18T17:48:07.295Z,21.55
2019-02-18T17:50:34.916Z,21.56
2019-02-18T17:53:02.963Z,21.56
2019-02-18T17:55:30.604Z,21.55
2019-02-18T17:57:58.269Z,21.56
2019-02-18T18:00:36.496Z,21.54
2019-02-18T18:03:04.261Z,21.50
2019-02-18T18:05:32.018Z,21.55
2019-02-18T18:08:00.050Z,21.60
2019-02-18T18:10:27.768Z,21.61
2019-02-18T18:12:55.390Z,21.63
2019-02-18T18:15:23.068Z,21.66
2019-02-18T18:17:50.691Z,21.62
2019-02-18T18:20:18.421Z,21.60
2019-02-18T18:22:46.050Z,21.60
2019-02-18T18:25:14.595Z,21.60
2019-02-18T18:27:42.324Z,21.60
2019-02-18T18:30:11.107Z,21.63
2019-02-18T18:32:38.746Z,21.63
2019-02-18T18:35:08.040Z,21.61
2019-02-18T18:37:35.670Z,21.64
2019-02-18T18:40:03.964Z,21.70
2019-02-18T18:42:31.596Z,21.66
2019-02-18T18:44:59.261Z,21.69
2019-02-18T18:47:26.889Z,21.67
2019-02-18T18:49:54.558Z,21.65
2019-02-18T18:52:22.206Z,21.69
2019-02-18T18:54:49.821Z,21.69
2019-02-18T18:57:17.834Z,21.63
2019-02-18T18:59:45.453Z,21.57
2019-02-18T19:02:13.088Z,21.53
2019-02-18T19:04:40.750Z,21.45
2019-02-18T19:07:08.363Z,21.49
2019-02-18T19:09:36.034Z,21.48
2019-02-18T19:12:03.683Z,21.49
2019-02-18T19:14:31.589Z,21.49
2019-02-18T19:16:59.230Z,21.49
2019-02-18T19:19:26.854Z,21.50
2019-02-18T19:21:54.509Z,21.51
2019-02-18T19:24:22.169Z,21.45
2019-02-18T19:26:49.852Z,21.44
2019-02-18T19:29:17.876Z,21.45
2019-02-18T19:31:45.538Z,21.46
2019-02-18T19:34:13.168Z,21.48
2019-02-18T19:36:40.828Z,21.49
2019-02-18T19:39:08.486Z,21.46
2019-02-18T19:41:36.126Z,21.46
2019-02-18T19:44:03.745Z,21.47
2019-02-18T19:46:31.765Z,21.44
2019-02-18T19:48:59.426Z,21.46
2019-02-18T19:51:27.044Z,21.45
2019-02-18T19:53:54.687Z,21.49
2019-02-18T19:56:22.322Z,21.44
2019-02-18T19:58:49.971Z,21.49
2019-02-18T20:01:17.598Z,21.49
2019-02-18T20:03:45.247Z,21.48
2019-02-18T20:06:12.897Z,21.48
2019-02-18T20:08:40.534Z,21.50
2019-02-18T20:11:08.286Z,21.49
2019-02-18T20:13:35.926Z,21.50
2019-02-18T20:16:03.597Z,21.48
2019-02-18T20:18:31.302Z,21.51
2019-02-18T20:20:58.929Z,21.49
2019-02-18T20:23:26.577Z,21.47
2019-02-18T20:25:54.249Z,21.50
2019-02-18T20:28:21.904Z,21.51
2019-02-18T20:30:49.733Z,21.52
2019-02-18T20:33:17.369Z,21.51
2019-02-18T20:35:45.403Z,21.48
2019-02-18T20:38:13.019Z,21.45
2019-02-18T20:40:40.629Z,21.44
2019-02-18T20:43:08.301Z,21.46
2019-02-18T20:45:36.013Z,21.48
2019-02-18T20:48:03.671Z,21.51
2019-02-18T20:50:31.361Z,21.53
2019-02-18T20:52:59.289Z,21.50
2019-02-18T20:55:26.930Z,21.51
2019-02-18T20:57:54.691Z,21.50
2019-02-18T21:00:22.327Z,21.50
2019-02-18T21:02:49.984Z,21.48
2019-02-18T21:05:17.594Z,21.46
2019-02-18T21:07:45.249Z,21.49
2019-02-18T21:10:14.524Z,21.47
2019-02-18T21:12:42.162Z,21.49
2019-02-18T21:15:10.054Z,21.51
2019-02-18T21:17:37.687Z,21.50
2019-02-18T21:20:06.327Z,21.49
2019-02-18T21:22:33.959Z,21.48
2019-02-18T21:25:01.972Z,21.48
2019-02-18T21:27:29.625Z,21.50
2019-02-18T21:29:57.250Z,21.51
2019-02-18T21:32:24.981Z,21.51
2019-02-18T21:34:52.663Z,21.53
2019-02-18T21:37:20.310Z,21.52
2019-02-18T21:39:47.951Z,21.52
2019-02-18T21:42:15.963Z,21.52
2019-02-18T21:44:43.647Z,21.53
2019-02-18T21:47:11.337Z,21.52
2019-02-18T21:49:38.951Z,21.53
2019-02-18T21:52:06.608Z,21.52
2019-02-18T21:54:34.311Z,21.52
2019-02-18T21:57:01.955Z,21.53
2019-02-18T21:59:29.979Z,21.55
2019-02-18T22:01:57.710Z,21.53
2019-02-18T22:04:25.341Z,21.53
2019-02-18T22:06:52.993Z,21.52
2019-02-18T22:09:20.599Z,21.51
2019-02-18T22:11:48.246Z,21.51
2019-02-18T22:14:15.883Z,21.51
2019-02-18T22:16:43.915Z,21.50
2019-02-18T22:19:11.548Z,21.51
2019-02-18T22:21:39.157Z,21.51
2019-02-18T22:24:06.817Z,21.50
2019-02-18T22:26:34.440Z,21.42
2019-02-18T22:29:02.089Z,21.49
2019-02-18T22:31:29.693Z,21.50
2019-02-18T22:33:57.308Z,21.53
2019-02-18T22:36:25.263Z,21.57
2019-02-18T22:38:52.883Z,21.59
2019-02-18T22:41:20.571Z,21.57
2019-02-18T22:43:48.207Z,21.56
2019-02-18T22:46:15.865Z,21.55
2019-02-18T22:48:44.077Z,21.53
2019-02-18T22:51:11.723Z,21.53
2019-02-18T22:53:39.724Z,21.51
2019-02-18T22:56:07.364Z,21.51
2019-02-18T22:58:34.988Z,21.51
2019-02-18T23:01:03.782Z,21.51
2019-02-18T23:03:31.584Z,21.50
2019-02-18T23:05:59.249Z,21.51
2019-02-18T23:08:26.868Z,21.50
2019-02-18T23:10:54.534Z,21.50
2019-02-18T23:13:22.162Z,21.49
2019-02-18T23:15:49.817Z,21.49
2019-02-18T23:18:17.452Z,21.48
2019-02-18T23:20:45.084Z,21.49
2019-02-18T23:23:12.724Z,21.48
2019-02-18T23:25:40.363Z,21.48
2019-02-18T23:28:07.990Z,21.47
2019-02-18T23:30:36.012Z,21.46
2019-02-18T23:33:03.641Z,21.47
2019-02-18T23:35:31.344Z,21.45
2019-02-18T23:37:58.980Z,21.45
2019-02-18T23:40:26.618Z,21.46
2019-02-18T23:42:54.253Z,21.46
2019-02-18T23:45:21.900Z,21.46
2019-02-18T23:47:49.588Z,21.45
2019-02-18T23:50:17.240Z,21.45
2019-02-18T23:52:44.866Z,21.44
2019-02-18T23:55:12.509Z,21.45
2019-02-18T23:57:40.204Z,21.44
